Аэропорт: Элиста. Элиста

ICAO: URWI

METAR:
2018/11/19 10:00
URWI 191000Z 09004MPS CAVOK 02/M09 Q1026 R09/190050 NOSIG
METAR:
2018/07/15 12:12
TAF TAF URWI 151100Z 1512/1524 29003G08MPS 9999 SCT030CB 
      TEMPO 1512/1524 VRB08G15MPS 3100 -TSRAGR SCT011 BKN020CB